Mont Belvieu, Texas
Current Conditions -  °F | °C
As of 7:50 PM on Sunday 21 Dec 2014 (Local Time) from KEFD Reporting Station
Scattered Clouds Scattered Clouds  
Wind Chill: 55°   Ceiling: Unl
Heat Index: 55°   Visibility: 10mi
Dew Point: 52°   Wind: 0mph
Humidity: 88%   Direction: NA
Pressure: 29.95"   Gusts: NA
Location:  29.85°N, 94.89°W
Report Text: KEFD 220150Z 00000KT 10SM FEW020 SCT070 13/11 A2995
Loading
Personal Weather Stations






























Interactive Weather Map New forecast layout! Learn more

10-Day Weather Forecast

Advertisements
Track Severe Weather on mobile